createdAt,value
2022-08-26T00:04:54.049Z,101115.70
2022-08-26T00:09:59.793Z,101108.34
2022-08-26T00:15:08.920Z,101108.30
2022-08-26T00:20:17.267Z,101100.27
2022-08-26T00:25:24.159Z,101108.59
2022-08-26T00:30:31.809Z,101105.67
2022-08-26T00:35:37.541Z,101095.94
2022-08-26T00:40:50.489Z,101105.74
2022-08-26T00:46:02.548Z,101092.76
2022-08-26T00:51:13.995Z,101093.89
2022-08-26T00:56:39.759Z,101086.02
2022-08-26T01:01:46.322Z,101084.16
2022-08-26T01:06:54.814Z,101082.59
2022-08-26T01:12:03.039Z,101076.64
2022-08-26T01:17:09.675Z,101074.92
2022-08-26T01:22:33.465Z,101068.26
2022-08-26T01:27:39.464Z,101071.48
2022-08-26T01:32:46.379Z,101074.20
2022-08-26T01:37:55.031Z,101075.47
2022-08-26T01:43:02.886Z,101072.35
2022-08-26T01:48:11.774Z,101072.15
2022-08-26T01:53:19.612Z,101068.40
2022-08-26T01:58:35.609Z,101069.87
2022-08-26T02:03:53.210Z,101075.56
2022-08-26T02:09:01.102Z,101071.33
2022-08-26T02:14:18.603Z,101072.28
2022-08-26T02:19:33.082Z,101079.28
2022-08-26T02:24:53.671Z,101082.66
2022-08-26T02:30:17.463Z,101074.28
2022-08-26T02:35:25.176Z,101075.80
2022-08-26T02:40:34.085Z,101079.33
2022-08-26T02:45:41.833Z,101075.59
2022-08-26T02:50:47.846Z,101066.42
2022-08-26T02:55:53.682Z,101054.46
2022-08-26T03:00:59.223Z,101053.75
2022-08-26T03:06:04.909Z,101039.23
2022-08-26T03:16:16.899Z,101040.92
2022-08-26T03:21:22.736Z,101046.97
2022-08-26T03:26:29.842Z,101032.35
2022-08-26T03:31:36.487Z,101027.83
2022-08-26T03:36:42.698Z,101030.55
2022-08-26T03:41:51.954Z,101019.81
2022-08-26T03:46:57.777Z,101026.04
2022-08-26T03:52:04.700Z,101021.55
2022-08-26T03:57:11.304Z,101024.92
2022-08-26T04:02:17.866Z,101024.92
2022-08-26T04:07:25.097Z,101022.91
2022-08-26T04:12:30.761Z,101016.81
2022-08-26T04:17:36.984Z,101012.67
2022-08-26T04:22:43.428Z,101009.59
2022-08-26T04:27:49.095Z,101002.80
2022-08-26T04:32:56.096Z,101019.63
2022-08-26T04:38:01.732Z,101019.21
2022-08-26T04:43:09.366Z,101019.42
2022-08-26T04:48:16.966Z,101020.28
2022-08-26T04:53:23.580Z,101025.13
2022-08-26T04:58:30.376Z,101019.56
2022-08-26T05:03:37.114Z,101023.77
2022-08-26T05:08:43.037Z,101017.54
2022-08-26T05:13:49.119Z,101019.01
2022-08-26T05:24:02.021Z,101012.91
2022-08-26T05:29:07.753Z,101013.56
2022-08-26T05:34:13.521Z,101011.60
2022-08-26T05:39:19.931Z,101014.17
2022-08-26T05:44:26.906Z,101016.14
2022-08-26T05:49:32.686Z,101019.45
2022-08-26T05:54:40.386Z,101022.94
2022-08-26T05:59:46.011Z,101018.89
2022-08-26T06:04:51.883Z,101013.55
2022-08-26T06:10:21.405Z,101014.00
2022-08-26T06:15:05.105Z,101014.94
2022-08-26T06:20:11.367Z,101013.72
2022-08-26T06:25:34.869Z,101017.48
2022-08-26T06:30:42.750Z,101006.97
2022-08-26T06:35:48.453Z,101007.20
2022-08-26T06:40:59.772Z,101008.94
2022-08-26T06:46:08.437Z,101014.41
2022-08-26T06:51:17.921Z,101018.42
2022-08-26T06:56:25.795Z,101020.30
2022-08-26T07:01:34.744Z,101023.04
2022-08-26T07:06:43.190Z,101016.21
2022-08-26T07:11:49.542Z,101012.78
2022-08-26T07:16:55.753Z,101023.77
2022-08-26T07:22:04.211Z,101024.75
2022-08-26T07:27:13.466Z,101025.22
2022-08-26T07:32:21.003Z,101024.83
2022-08-26T07:37:28.412Z,101024.62
2022-08-26T07:42:35.925Z,101019.93
2022-08-26T07:47:42.201Z,101016.75
2022-08-26T07:52:47.965Z,101009.20
2022-08-26T07:57:55.067Z,101005.08
2022-08-26T08:03:01.977Z,101002.73
2022-08-26T08:08:26.664Z,101009.41
2022-08-26T08:13:17.718Z,101009.61
2022-08-26T08:18:24.185Z,100997.38
2022-08-26T08:23:30.799Z,100994.05
2022-08-26T08:28:37.478Z,100994.81
2022-08-26T08:33:43.031Z,100993.20
2022-08-26T08:38:48.907Z,100990.36
2022-08-26T08:43:56.801Z,100982.83
2022-08-26T08:49:04.356Z,100973.45
2022-08-26T08:54:10.912Z,100967.04
2022-08-26T08:59:28.707Z,100964.58
2022-08-26T09:04:59.016Z,100963.60
2022-08-26T09:10:39.401Z,100963.76
2022-08-26T09:16:10.110Z,100961.44
2022-08-26T09:21:18.001Z,100960.11
2022-08-26T09:26:31.937Z,100959.03
2022-08-26T09:31:41.704Z,100951.88
2022-08-26T09:36:53.830Z,100947.52
2022-08-26T09:42:28.844Z,100944.77
2022-08-26T09:47:37.336Z,100944.00
2022-08-26T09:52:43.093Z,100928.64
2022-08-26T09:57:54.341Z,100935.86
2022-08-26T10:03:03.728Z,100931.97
2022-08-26T10:08:32.594Z,100929.16
2022-08-26T10:13:42.844Z,100933.45
2022-08-26T10:19:08.262Z,100928.33
2022-08-26T10:24:19.568Z,100920.06
2022-08-26T10:29:28.589Z,100913.59
2022-08-26T10:34:35.287Z,100910.09
2022-08-26T10:39:56.989Z,100907.13
2022-08-26T10:45:02.790Z,100900.63
2022-08-26T10:50:08.948Z,100896.67
2022-08-26T10:55:17.425Z,100891.55
2022-08-26T11:00:44.266Z,100884.66
2022-08-26T11:06:09.489Z,100877.87
2022-08-26T11:11:35.132Z,100871.72
2022-08-26T11:16:44.571Z,100870.41
2022-08-26T11:21:53.727Z,100847.97
2022-08-26T11:26:59.397Z,100839.08
2022-08-26T11:32:05.881Z,100831.55
2022-08-26T11:37:14.455Z,100826.87
2022-08-26T11:42:48.640Z,100814.57
2022-08-26T11:47:54.999Z,100804.62
2022-08-26T11:53:06.191Z,100803.98
2022-08-26T11:58:14.428Z,100792.41
2022-08-26T12:03:23.301Z,100782.66
2022-08-26T12:08:32.038Z,100773.45
2022-08-26T12:13:39.580Z,100762.75
2022-08-26T12:18:45.341Z,100763.59
2022-08-26T12:23:54.847Z,100751.27
2022-08-26T12:29:10.002Z,100751.88
2022-08-26T12:34:19.223Z,100733.14
2022-08-26T12:39:34.223Z,100746.74
2022-08-26T12:44:53.381Z,100742.91
2022-08-26T12:50:07.471Z,100731.11
2022-08-26T12:55:37.193Z,100723.73
2022-08-26T13:00:45.913Z,100714.99
2022-08-26T13:05:51.602Z,100715.88
2022-08-26T13:11:06.383Z,100708.64
2022-08-26T13:16:12.497Z,100716.30
2022-08-26T13:21:21.202Z,100710.78
2022-08-26T13:26:27.436Z,100722.13
2022-08-26T13:31:35.693Z,100712.94
2022-08-26T13:36:44.566Z,100703.97
2022-08-26T13:41:51.562Z,100706.73
2022-08-26T13:46:57.105Z,100695.47
2022-08-26T13:52:03.920Z,100694.85
2022-08-26T13:57:10.094Z,100684.44
2022-08-26T14:02:15.650Z,100663.97
2022-08-26T14:07:21.310Z,100660.66
2022-08-26T14:12:26.878Z,100656.60
2022-08-26T14:17:33.162Z,100644.30
2022-08-26T14:22:52.090Z,100642.38
2022-08-26T14:27:47.976Z,100638.02
2022-08-26T14:32:56.995Z,100637.38
2022-08-26T14:38:02.583Z,100629.41
2022-08-26T14:43:09.905Z,100623.27
2022-08-26T14:48:15.661Z,100623.66
2022-08-26T14:53:38.992Z,100631.56
2022-08-26T14:58:44.709Z,100628.48
2022-08-26T15:03:51.298Z,100637.08
2022-08-26T15:08:56.865Z,100638.96
2022-08-26T15:14:02.834Z,100648.38
2022-08-26T15:19:08.723Z,100654.42
2022-08-26T15:24:16.197Z,100647.63
2022-08-26T15:29:23.879Z,100649.47
2022-08-26T15:34:29.499Z,100647.88
2022-08-26T15:39:36.398Z,100650.44
2022-08-26T15:44:46.093Z,100645.88
2022-08-26T15:49:51.615Z,100643.44
2022-08-26T15:54:57.344Z,100639.84
2022-08-26T16:00:03.260Z,100636.45
2022-08-26T16:05:11.811Z,100628.36
2022-08-26T16:10:18.791Z,100616.39
2022-08-26T16:15:24.493Z,100617.38
2022-08-26T16:20:32.682Z,100617.59
2022-08-26T16:25:39.791Z,100613.48
2022-08-26T16:30:46.119Z,100609.64
2022-08-26T16:40:57.505Z,100598.30
2022-08-26T16:46:03.300Z,100591.30
2022-08-26T16:51:16.318Z,100593.93
2022-08-26T16:56:33.427Z,100592.83
2022-08-26T17:01:32.308Z,100587.73
2022-08-26T17:06:38.435Z,100584.22
2022-08-26T17:11:44.662Z,100581.24
2022-08-26T17:16:51.613Z,100593.27
2022-08-26T17:21:57.180Z,100594.95
2022-08-26T17:27:02.765Z,100597.07
2022-08-26T17:32:08.437Z,100607.63
2022-08-26T17:37:14.059Z,100604.63
2022-08-26T17:42:19.560Z,100606.63
2022-08-26T17:47:25.308Z,100608.70
2022-08-26T17:52:31.479Z,100600.33
2022-08-26T17:57:40.556Z,100600.48
2022-08-26T18:02:44.964Z,100601.62
2022-08-26T18:07:50.727Z,100605.03
2022-08-26T18:12:56.201Z,100603.41
2022-08-26T18:18:01.717Z,100609.78
2022-08-26T18:23:07.654Z,100596.41
2022-08-26T18:28:13.800Z,100601.23
2022-08-26T18:33:21.125Z,100594.66
2022-08-26T18:38:28.343Z,100596.55
2022-08-26T18:43:33.978Z,100597.50
2022-08-26T18:48:41.190Z,100602.91
2022-08-26T18:53:46.750Z,100595.68
2022-08-26T18:58:52.823Z,100591.17
2022-08-26T19:04:01.089Z,100585.70
2022-08-26T19:09:09.226Z,100594.03
2022-08-26T19:14:16.976Z,100587.33
2022-08-26T19:19:24.831Z,100588.46
2022-08-26T19:24:30.809Z,100593.33
2022-08-26T19:29:38.809Z,100606.34
2022-08-26T19:34:44.611Z,100604.89
2022-08-26T19:39:51.670Z,100600.48
2022-08-26T19:45:11.019Z,100597.28
2022-08-26T19:50:18.796Z,100595.50
2022-08-26T19:55:26.352Z,100598.95
2022-08-26T20:00:35.921Z,100603.98
2022-08-26T20:05:41.717Z,100603.84
2022-08-26T20:10:47.291Z,100610.86
2022-08-26T20:15:53.893Z,100609.47
2022-08-26T20:21:17.276Z,100624.02
2022-08-26T20:26:23.118Z,100630.17
2022-08-26T20:31:30.073Z,100639.99
2022-08-26T20:36:38.258Z,100647.52
2022-08-26T20:41:45.557Z,100653.84
2022-08-26T20:46:54.625Z,100654.03
2022-08-26T20:52:01.828Z,100651.52
2022-08-26T20:57:08.614Z,100643.78
2022-08-26T21:02:14.172Z,100651.52
2022-08-26T21:07:21.101Z,100652.20
2022-08-26T21:12:27.962Z,100655.13
2022-08-26T21:17:33.646Z,100661.13
2022-08-26T21:22:39.301Z,100659.46
2022-08-26T21:27:45.378Z,100653.81
2022-08-26T21:32:51.148Z,100650.40
2022-08-26T21:37:57.021Z,100647.84
2022-08-26T21:43:02.794Z,100640.83
2022-08-26T21:48:09.737Z,100632.12
2022-08-26T21:53:15.737Z,100631.28
2022-08-26T21:58:22.980Z,100618.64
2022-08-26T22:03:29.979Z,100623.61
2022-08-26T22:08:37.440Z,100619.20
2022-08-26T22:13:45.726Z,100614.78
2022-08-26T22:18:51.283Z,100621.61
2022-08-26T22:23:59.028Z,100616.33
2022-08-26T22:29:06.802Z,100615.34
2022-08-26T22:34:16.764Z,100612.63
2022-08-26T22:39:24.919Z,100610.41
2022-08-26T22:44:30.665Z,100610.41
2022-08-26T22:49:36.631Z,100620.14
2022-08-26T22:54:42.187Z,100622.73
2022-08-26T22:59:48.421Z,100631.61
2022-08-26T23:04:54.090Z,100622.39
2022-08-26T23:09:59.607Z,100631.95
2022-08-26T23:15:08.903Z,100615.75
2022-08-26T23:20:17.132Z,100622.91
2022-08-26T23:25:23.365Z,100635.70
2022-08-26T23:30:32.479Z,100632.12
2022-08-26T23:35:38.080Z,100636.05
2022-08-26T23:40:45.489Z,100633.99
2022-08-26T23:45:51.135Z,100633.34
2022-08-26T23:51:15.881Z,100622.23
2022-08-26T23:56:21.439Z,100629.24
